Uni Wealth — VRFV4 — position and weather

sailwx.info

Track history (hours):
 
Tides and Currents Weather Stations Pressure Air Temp Water Temp Dewpoint Dewpoint Depression Visibility Wind Speed Wind Dir Waves Ship Positions

Uni Wealth

Last reported at 2017-Apr-10 06:55 UTC. Time now 2017-Apr-27 20:50 UTC.
Position N 01°14' E 103°57'.
Warning: this ship's position is 17 days out of date.

Length 170 m; draft 9.1 m.

Type: Cargo ship. MMSI: 477621200.

Date/timePositionNaut miles runAvg speedWind from/ knotsBaromVisibWave heightAir tempDewpointWater temp
2017-Apr-10 06:55N 01°14' E 103°57'3 6.4
2017-Apr-10 06:27N 01°14' E 103°54'1 2.9
2017-Apr-10 06:00N 01°15' E 103°53'0 0.1
2017-Apr-10 05:29N 01°15' E 103°54'0 0.0
2017-Apr-10 04:23N 01°15' E 103°54'0 0.1
2017-Apr-10 03:56N 01°15' E 103°53'0 0.1
2017-Apr-10 02:26N 01°15' E 103°53'0 0.0
2017-Apr-10 01:56N 01°15' E 103°53'0 0.0
2017-Apr-10 01:29N 01°15' E 103°53'0 0.0
2017-Apr-10 00:56N 01°15' E 103°53'0 0.0
2017-Apr-10 00:26N 01°15' E 103°53'0 0.0
2017-Apr-09 23:56N 01°15' E 103°53'0 0.0
2017-Apr-09 23:29N 01°15' E 103°53'0 0.0
2017-Apr-09 22:59N 01°15' E 103°53'0 0.1
2017-Apr-09 22:29N 01°15' E 103°53'0 0.2
2017-Apr-09 21:59N 01°15' E 103°54'2 4.2
2017-Apr-09 21:30N 01°13' E 103°53'1 1.8
2017-Apr-09 21:00N 01°13' E 103°54'3 6.3
2017-Apr-09 20:30N 01°11' E 103°51'3 6.6
2017-Apr-09 20:00N 01°10' E 103°48'3 6.8
2017-Apr-09 19:30N 01°07' E 103°45'4 7.9
2017-Apr-09 19:00N 01°05' E 103°43'3 6.9
2017-Apr-09 18:30N 01°03' E 103°40'4 7.3
2017-Apr-09 17:57N 01°04' E 103°36'3 7.5
2017-Apr-09 17:30N 01°06' E 103°33'4 8.0
2017-Apr-09 17:00N 01°08' E 103°30'4 8.9
2017-Apr-09 16:30N 01°10' E 103°26'712.6
2017-Apr-09 15:59N 01°15' E 103°21'  
Track history (hours):
 
Tides and Currents Weather Stations Pressure Air Temp Water Temp Dewpoint Dewpoint Depression Visibility Wind Speed Wind Dir Waves Ship Positions

Uni Wealth

Last reported at 2017-Apr-10 06:55 UTC. Time now 2017-Apr-27 20:50 UTC.
Position N 01°14' E 103°57'.
Warning: this ship's position is 17 days out of date.

Length 170 m; draft 9.1 m.

Type: Cargo ship. MMSI: 477621200.

Date/timePositionNaut miles runAvg speedWind from/ knotsBaromVisibWave heightAir tempDewpointWater temp
2017-Apr-10 06:55N 01°14' E 103°57'3 6.4
2017-Apr-10 06:27N 01°14' E 103°54'1 2.9
2017-Apr-10 06:00N 01°15' E 103°53'0 0.1
2017-Apr-10 05:29N 01°15' E 103°54'0 0.0
2017-Apr-10 04:23N 01°15' E 103°54'0 0.1
2017-Apr-10 03:56N 01°15' E 103°53'0 0.1
2017-Apr-10 02:26N 01°15' E 103°53'0 0.0
2017-Apr-10 01:56N 01°15' E 103°53'0 0.0
2017-Apr-10 01:29N 01°15' E 103°53'0 0.0
2017-Apr-10 00:56N 01°15' E 103°53'0 0.0
2017-Apr-10 00:26N 01°15' E 103°53'0 0.0
2017-Apr-09 23:56N 01°15' E 103°53'0 0.0
2017-Apr-09 23:29N 01°15' E 103°53'0 0.0
2017-Apr-09 22:59N 01°15' E 103°53'0 0.1
2017-Apr-09 22:29N 01°15' E 103°53'0 0.2
2017-Apr-09 21:59N 01°15' E 103°54'2 4.2
2017-Apr-09 21:30N 01°13' E 103°53'1 1.8
2017-Apr-09 21:00N 01°13' E 103°54'3 6.3
2017-Apr-09 20:30N 01°11' E 103°51'3 6.6
2017-Apr-09 20:00N 01°10' E 103°48'3 6.8
2017-Apr-09 19:30N 01°07' E 103°45'4 7.9
2017-Apr-09 19:00N 01°05' E 103°43'3 6.9
2017-Apr-09 18:30N 01°03' E 103°40'4 7.3
2017-Apr-09 17:57N 01°04' E 103°36'3 7.5
2017-Apr-09 17:30N 01°06' E 103°33'4 8.0
2017-Apr-09 17:00N 01°08' E 103°30'4 8.9
2017-Apr-09 16:30N 01°10' E 103°26'712.6
2017-Apr-09 15:59N 01°15' E 103°21'  

Dump ship's entire track history